Time;durP1;ratioP1;P1;durP2;ratioP2;P2;SDS_P1;SDS_P2;PMS_P1;PMS_P2;Temp;Humidity;BMP_temperature;BMP_pressure;BME280_temperature;BME280_humidity;BME280_pressure;Samples;Min_cycle;Max_cycle;Signal;HPM_P1;HPM_P2
2022/11/02 00:00:35;;;;;;;;;;;;;;;11.97;61.41;95934.44;5033777;28;1113;-59
2022/11/02 00:03:01;;;;;;;;;;;;;;;12.04;61.40;95937.34;5033884;28;1053;-59
2022/11/02 00:05:27;;;;;;;;;;;;;;;12.16;60.80;95937.97;5033688;28;950;-59
2022/11/02 00:07:54;;;;;;;;;;;;;;;12.26;60.56;95936.91;5033730;28;1101;-59
2022/11/02 00:10:21;;;;;;;;;;;;;;;12.07;60.90;95932.53;5033887;28;985;-59
2022/11/02 00:12:48;;;;;;;;;;;;;;;11.96;61.60;95935.41;5033669;28;1177;-59
2022/11/02 00:15:14;;;;;;;;;;;;;;;11.79;61.72;95934.34;5033687;28;1045;-59
2022/11/02 00:17:41;;;;;;;;;;;;;;;11.75;61.79;95932.97;5033643;28;1902;-59
2022/11/02 00:20:08;;;;;;;;;;;;;;;11.81;61.54;95932.34;5033451;28;1219;-59
2022/11/02 00:22:34;;;;;;;;;;;;;;;11.76;61.89;95929.31;5033726;28;1056;-59
2022/11/02 00:25:02;;;;;;;;;;;;;;;11.87;61.83;95931.75;5016203;28;938;-58
2022/11/02 00:27:30;;;;;;;;;;;;;;;11.94;61.24;95931.22;5033574;28;978;-59
2022/11/02 00:29:57;;;;;;;;;;;;;;;11.79;61.86;95933.50;5036841;28;1049;-58
2022/11/02 00:32:24;;;;;;;;;;;;;;;11.66;61.90;95931.16;5052837;28;1053;-59
2022/11/02 00:34:50;;;;;;;;;;;;;;;11.57;62.45;95921.34;5053220;28;1145;-60
2022/11/02 00:37:16;;;;;;;;;;;;;;;11.68;62.33;95926.50;5053163;28;1030;-59
2022/11/02 00:39:42;;;;;;;;;;;;;;;11.76;62.13;95923.94;5053289;28;1977;-59
2022/11/02 00:42:08;;;;;;;;;;;;;;;11.74;61.95;95920.53;5053202;28;1105;-59
2022/11/02 00:44:34;;;;;;;;;;;;;;;11.73;61.98;95924.22;5053120;28;1054;-59
2022/11/02 00:47:00;;;;;;;;;;;;;;;11.56;62.11;95914.31;5053188;28;1034;-59
2022/11/02 00:49:26;;;;;;;;;;;;;;;11.57;62.18;95913.31;5052925;28;1054;-59
2022/11/02 00:51:52;;;;;;;;;;;;;;;11.57;61.94;95916.00;5050979;28;1085;-59
2022/11/02 00:54:18;;;;;;;;;;;;;;;11.40;62.57;95907.78;5033283;28;951;-59
2022/11/02 00:56:44;;;;;;;;;;;;;;;11.35;62.81;95910.03;5033186;28;1125;-59
2022/11/02 00:59:11;;;;;;;;;;;;;;;11.33;63.03;95912.84;5032974;28;2294;-59
2022/11/02 01:01:37;;;;;;;;;;;;;;;11.37;63.47;95907.22;5033104;28;1014;-59
2022/11/02 01:04:03;;;;;;;;;;;;;;;11.50;62.81;95902.38;5033033;28;1114;-59
2022/11/02 01:06:29;;;;;;;;;;;;;;;11.44;63.04;95906.47;5033210;28;1052;-59
2022/11/02 01:08:55;;;;;;;;;;;;;;;11.51;63.13;95907.56;5015681;28;983;-59
2022/11/02 01:11:22;;;;;;;;;;;;;;;11.53;62.73;95908.28;5032909;28;1085;-59
2022/11/02 01:13:51;;;;;;;;;;;;;;;11.50;62.68;95903.19;5033104;28;981;-59
2022/11/02 01:16:17;;;;;;;;;;;;;;;11.40;62.83;95906.91;5032925;28;1042;-59
2022/11/02 01:18:43;;;;;;;;;;;;;;;11.33;62.89;95902.16;5032795;28;1988;-59
2022/11/02 01:21:09;;;;;;;;;;;;;;;11.28;62.95;95903.56;5032908;28;1014;-58
2022/11/02 01:23:36;;;;;;;;;;;;;;;11.32;63.45;95907.63;5033038;28;1128;-59
2022/11/02 01:26:06;;;;;;;;;;;;;;;11.31;63.15;95900.63;5015461;28;923;-58
2022/11/02 01:28:33;;;;;;;;;;;;;;;11.36;62.55;95898.31;5032900;28;1033;-59
2022/11/02 01:30:59;;;;;;;;;;;;;;;11.19;63.00;95902.59;5044635;28;1053;-59
2022/11/02 01:33:26;;;;;;;;;;;;;;;11.19;63.13;95904.44;5052686;28;1041;-59
2022/11/02 01:35:53;;;;;;;;;;;;;;;11.21;63.03;95900.66;5035106;28;1113;-59
2022/11/02 01:38:19;;;;;;;;;;;;;;;11.13;62.84;95900.53;5052688;28;2003;-59
2022/11/02 01:40:45;;;;;;;;;;;;;;;10.98;63.48;95901.97;5052609;28;1273;-59
2022/11/02 01:43:40;;;;;;;;;;;;;;;11.04;63.04;95901.41;5052527;28;1116;-59
2022/11/02 01:46:12;;;;;;;;;;;;;;;10.96;63.18;95899.44;5035800;28;1422;-59
2022/11/02 01:48:44;;;;;;;;;;;;;;;10.91;63.37;95901.75;5052833;28;1055;-59
2022/11/02 01:51:12;;;;;;;;;;;;;;;10.90;63.43;95902.72;5052709;28;1024;-59
2022/11/02 01:53:41;;;;;;;;;;;;;;;10.83;63.56;95899.78;5036255;28;1105;-59
2022/11/02 01:56:09;;;;;;;;;;;;;;;10.86;63.63;95904.00;5032596;28;1140;-59
2022/11/02 01:58:35;;;;;;;;;;;;;;;10.85;63.45;95899.63;5032893;28;1910;-59
2022/11/02 02:01:01;;;;;;;;;;;;;;;10.89;63.56;95901.88;5032782;28;1076;-59
2022/11/02 02:03:29;;;;;;;;;;;;;;;10.83;63.64;95898.91;5015476;28;1119;-59
2022/11/02 02:05:57;;;;;;;;;;;;;;;10.73;63.73;95905.13;5036196;28;1062;-58
2022/11/02 02:08:24;;;;;;;;;;;;;;;10.91;63.08;95902.56;5018346;28;1066;-59
2022/11/02 02:10:50;;;;;;;;;;;;;;;10.89;63.37;95903.72;5035933;28;1070;-59
2022/11/02 02:13:17;;;;;;;;;;;;;;;10.92;63.30;95906.91;5036071;28;1058;-59
2022/11/02 02:15:59;;;;;;;;;;;;;;;10.89;63.70;95898.38;5036115;28;1050;-59
2022/11/02 02:18:29;;;;;;;;;;;;;;;10.97;63.29;95895.81;5035742;28;1997;-59
2022/11/02 02:21:04;;;;;;;;;;;;;;;10.99;63.39;95909.03;5035689;28;1101;-59
2022/11/02 02:23:37;;;;;;;;;;;;;;;10.92;63.36;95906.91;5035636;28;1053;-59
2022/11/02 02:26:12;;;;;;;;;;;;;;;11.02;63.09;95903.38;5035690;28;1129;-59
2022/11/02 02:28:48;;;;;;;;;;;;;;;10.82;63.74;95907.94;5018119;28;1117;-59
2022/11/02 02:31:23;;;;;;;;;;;;;;;10.62;64.16;95907.97;5049328;28;1042;-59
2022/11/02 02:34:08;;;;;;;;;;;;;;;10.71;63.71;95907.09;5055530;28;990;-59
2022/11/02 02:36:44;;;;;;;;;;;;;;;10.80;63.31;95900.06;5055822;28;965;-59
2022/11/02 02:39:22;;;;;;;;;;;;;;;10.61;63.68;95919.66;5055352;28;1982;-59
2022/11/02 02:42:00;;;;;;;;;;;;;;;10.56;63.83;95916.56;5055494;28;910;-59
2022/11/02 02:44:29;;;;;;;;;;;;;;;10.61;63.91;95908.97;5055170;28;993;-59
2022/11/02 02:46:57;;;;;;;;;;;;;;;10.61;63.66;95906.28;5055432;28;966;-59
2022/11/02 02:49:35;;;;;;;;;;;;;;;10.61;63.44;95911.63;5055051;28;1097;-59
2022/11/02 02:52:02;;;;;;;;;;;;;;;10.63;63.37;95908.84;5052123;28;1049;-59
2022/11/02 02:54:34;;;;;;;;;;;;;;;10.60;62.98;95912.63;5035184;28;1054;-59
2022/11/02 02:57:05;;;;;;;;;;;;;;;10.49;63.20;95910.09;5035117;28;1098;-59
2022/11/02 02:59:34;;;;;;;;;;;;;;;10.35;63.72;95906.03;5035185;28;1985;-59
2022/11/02 03:02:04;;;;;;;;;;;;;;;10.35;63.97;95919.38;5035157;28;998;-59
2022/11/02 03:04:30;;;;;;;;;;;;;;;10.23;64.35;95904.47;5034924;28;1234;-59
2022/11/02 03:06:58;;;;;;;;;;;;;;;10.24;64.45;95906.13;5034948;28;1058;-59
2022/11/02 03:09:31;;;;;;;;;;;;;;;10.21;64.42;95904.59;5034784;28;1134;-59
2022/11/02 03:12:16;;;;;;;;;;;;;;;10.20;64.26;95910.06;5034890;28;1027;-59
2022/11/02 03:14:48;;;;;;;;;;;;;;;10.33;63.84;95905.31;5034630;28;1069;-59
2022/11/02 03:17:15;;;;;;;;;;;;;;;10.34;63.79;95909.69;5034812;28;970;-59
2022/11/02 03:19:50;;;;;;;;;;;;;;;10.32;63.80;95904.50;5034672;28;1989;-59
2022/11/02 03:22:16;;;;;;;;;;;;;;;10.30;64.17;95903.78;5034456;28;1375;-59
2022/11/02 03:24:56;;;;;;;;;;;;;;;10.28;64.01;95900.38;5034833;28;987;-59
2022/11/02 03:27:32;;;;;;;;;;;;;;;10.17;64.08;95903.19;5017053;28;1057;-59
2022/11/02 03:30:10;;;;;;;;;;;;;;;10.01;64.70;95902.88;5037991;28;1115;-59
2022/11/02 03:32:43;;;;;;;;;;;;;;;10.08;64.07;95904.88;5054420;28;977;-59
2022/11/02 03:35:17;;;;;;;;;;;;;;;9.99;64.23;95903.03;5054355;28;1108;-59
2022/11/02 03:37:51;;;;;;;;;;;;;;;9.90;64.55;95914.53;5054368;28;1910;-59
2022/11/02 03:40:25;;;;;;;;;;;;;;;9.82;64.73;95915.22;5054255;28;1292;-59
2022/11/02 03:42:52;;;;;;;;;;;;;;;9.93;64.86;95908.94;5054189;28;1041;-59
2022/11/02 03:45:24;;;;;;;;;;;;;;;9.93;64.43;95909.75;5054311;28;1004;-59
2022/11/02 03:47:54;;;;;;;;;;;;;;;10.16;63.80;95913.00;5054330;28;1026;-59
2022/11/02 03:50:21;;;;;;;;;;;;;;;9.98;64.46;95912.03;5054101;28;1020;-59
2022/11/02 03:52:50;;;;;;;;;;;;;;;9.90;64.70;95910.06;5044465;28;1141;-59
2022/11/02 03:55:18;;;;;;;;;;;;;;;9.92;64.53;95916.09;5033958;28;1097;-59
2022/11/02 03:57:46;;;;;;;;;;;;;;;9.90;64.56;95917.22;5033877;28;1910;-59
2022/11/02 04:00:14;;;;;;;;;;;;;;;9.91;64.56;95913.56;5034075;28;1034;-59
2022/11/02 04:02:42;;;;;;;;;;;;;;;10.11;63.70;95909.06;5033842;28;1018;-59
2022/11/02 04:05:08;;;;;;;;;;;;;;;9.96;64.00;95912.16;5033862;28;1054;-59
2022/11/02 04:10:21;;;;;;;;;;;;;;;9.72;64.64;95906.38;5033983;28;1009;-59
2022/11/02 04:15:31;;;;;;;;;;;;;;;9.46;65.40;95898.00;5033574;28;1073;-59
2022/11/02 04:20:42;;;;;;;;;;;;;;;9.61;65.46;95901.97;5033544;28;1101;-59
2022/11/02 04:25:53;;;;;;;;;;;;;;;9.78;65.24;95898.63;5033481;28;982;-59
2022/11/02 04:28:19;;;;;;;;;;;;;;;9.95;64.89;95901.63;5033031;28;1129;-59
2022/11/02 04:30:46;;;;;;;;;;;;;;;9.99;64.01;95897.69;5043345;28;1113;-59
2022/11/02 04:35:58;;;;;;;;;;;;;;;9.92;64.09;95897.41;5053541;28;931;-59
2022/11/02 04:38:39;;;;;;;;;;;;;;;9.78;64.53;95897.78;5053037;28;1999;-59
2022/11/02 04:43:54;;;;;;;;;;;;;;;9.72;65.14;95898.34;5053493;28;986;-59
2022/11/02 04:46:21;;;;;;;;;;;;;;;9.85;64.68;95898.94;5053301;28;1071;-59
2022/11/02 04:48:47;;;;;;;;;;;;;;;9.80;65.09;95900.34;5053335;28;1054;-59
2022/11/02 04:51:13;;;;;;;;;;;;;;;9.92;64.65;95904.56;5035397;28;1070;-59
2022/11/02 04:53:40;;;;;;;;;;;;;;;9.91;64.54;95898.38;5036445;28;1058;-60
2022/11/02 04:56:06;;;;;;;;;;;;;;;9.83;64.37;95898.22;5033174;28;1045;-59
2022/11/02 04:58:32;;;;;;;;;;;;;;;9.87;63.93;95901.47;5033228;28;1902;-59
2022/11/02 05:01:02;;;;;;;;;;;;;;;9.73;64.63;95905.38;5033159;28;1074;-59
2022/11/02 05:03:28;;;;;;;;;;;;;;;9.71;64.35;95907.34;5033209;28;1061;-59
2022/11/02 05:05:55;;;;;;;;;;;;;;;9.65;64.86;95902.56;5033256;28;974;-59
2022/11/02 05:08:21;;;;;;;;;;;;;;;9.74;63.81;95912.41;5032984;28;1070;-59
2022/11/02 05:10:47;;;;;;;;;;;;;;;9.74;63.33;95912.41;5032990;28;1039;-59
2022/11/02 05:13:13;;;;;;;;;;;;;;;9.57;64.84;95909.41;5032900;28;1050;-59
2022/11/02 05:15:39;;;;;;;;;;;;;;;9.66;64.39;95909.59;5033017;28;1109;-60
2022/11/02 05:18:06;;;;;;;;;;;;;;;9.69;64.71;95918.16;5032927;28;1910;-59
2022/11/02 05:20:32;;;;;;;;;;;;;;;9.76;64.54;95915.78;5032811;28;1259;-60
2022/11/02 05:22:58;;;;;;;;;;;;;;;9.77;64.22;95918.31;5032971;28;1038;-59
2022/11/02 05:25:24;;;;;;;;;;;;;;;9.70;64.51;95927.03;5032745;28;1013;-59
2022/11/02 05:27:50;;;;;;;;;;;;;;;9.69;64.83;95926.16;5033097;28;1061;-60
2022/11/02 05:30:17;;;;;;;;;;;;;;;9.84;64.50;95928.44;5038825;28;1065;-60
2022/11/02 05:32:43;;;;;;;;;;;;;;;9.83;64.93;95929.44;5052808;28;1037;-59
2022/11/02 05:35:09;;;;;;;;;;;;;;;9.87;64.55;95926.34;5052830;28;1085;-59
2022/11/02 05:37:35;;;;;;;;;;;;;;;10.00;64.15;95939.47;5052971;28;1985;-59
2022/11/02 05:40:01;;;;;;;;;;;;;;;9.92;64.45;95933.94;5056456;28;1249;-60
2022/11/02 05:42:27;;;;;;;;;;;;;;;10.04;64.67;95932.84;5056392;28;1033;-59
2022/11/02 05:44:53;;;;;;;;;;;;;;;10.13;64.57;95926.69;5056655;28;1213;-59
2022/11/02 05:47:19;;;;;;;;;;;;;;;10.37;63.56;95948.66;5056460;28;985;-59
2022/11/02 05:49:45;;;;;;;;;;;;;;;10.44;64.17;95934.59;5056413;28;1045;-59
2022/11/02 05:52:11;;;;;;;;;;;;;;;10.69;63.20;95941.19;5051823;28;1045;-59
2022/11/02 05:54:37;;;;;;;;;;;;;;;11.01;62.62;95953.38;5036244;28;1098;-59
2022/11/02 05:57:03;;;;;;;;;;;;;;;11.65;60.91;95959.81;5036501;28;1057;-59
2022/11/02 05:59:29;;;;;;;;;;;;;;;12.34;58.61;95964.81;5036034;28;1906;-59
2022/11/02 06:01:55;;;;;;;;;;;;;;;13.44;55.64;95975.09;5036274;28;1058;-59
2022/11/02 06:04:21;;;;;;;;;;;;;;;13.31;55.99;95979.22;5036154;28;1033;-59
2022/11/02 06:06:48;;;;;;;;;;;;;;;13.53;55.58;95967.94;5036090;28;1153;-60
2022/11/02 06:09:14;;;;;;;;;;;;;;;13.76;55.14;95978.97;5018365;28;1407;-59
2022/11/02 06:11:40;;;;;;;;;;;;;;;13.75;55.50;95973.75;5036233;28;1116;-59
2022/11/02 06:14:06;;;;;;;;;;;;;;;13.63;55.85;95974.03;5035934;28;1101;-59
2022/11/02 06:16:32;;;;;;;;;;;;;;;13.62;56.25;95972.38;5035981;28;942;-59
2022/11/02 06:18:58;;;;;;;;;;;;;;;14.08;55.21;95969.38;5035783;28;1906;-59
2022/11/02 06:25:07;;;;;;;;;;;;;;;17.28;47.77;95986.63;4996559;28;670;-60
2022/11/02 06:27:33;;;;;;;;;;;;;;;20.71;40.74;95995.19;4996389;28;976;-60
2022/11/02 06:29:59;;;;;;;;;;;;;;;23.70;35.51;96017.38;4998486;28;1113;-60
2022/11/02 06:32:25;;;;;;;;;;;;;;;26.06;31.48;96039.78;5016045;28;1025;-60
2022/11/02 06:34:51;;;;;;;;;;;;;;;26.98;29.98;96041.03;5015820;28;1094;-60
2022/11/02 06:37:17;;;;;;;;;;;;;;;24.45;33.04;96029.31;5014672;28;1018;-60
2022/11/02 06:39:43;;;;;;;;;;;;;;;20.75;39.19;96009.19;5015756;28;1983;-60
2022/11/02 06:42:10;;;;;;;;;;;;;;;19.40;42.13;96000.41;5015716;28;1129;-60
2022/11/02 06:44:36;;;;;;;;;;;;;;;19.55;41.80;96000.31;5015686;28;1052;-60
2022/11/02 06:47:02;;;;;;;;;;;;;;;18.10;44.93;95989.38;5015561;28;970;-60
2022/11/02 06:49:28;;;;;;;;;;;;;;;16.84;48.31;95984.63;5013843;28;1021;-60
2022/11/02 06:51:54;;;;;;;;;;;;;;;16.08;50.26;95976.25;5013620;28;1053;-60
2022/11/02 06:54:20;;;;;;;;;;;;;;;15.67;51.26;95970.97;4995885;28;975;-60
2022/11/02 06:56:46;;;;;;;;;;;;;;;15.56;51.63;95980.28;4995745;28;1129;-59
2022/11/02 06:59:12;;;;;;;;;;;;;;;15.48;51.70;95980.25;4994450;28;1914;-59
2022/11/02 07:01:38;;;;;;;;;;;;;;;15.69;51.37;95987.81;4995867;28;1006;-59
2022/11/02 07:04:04;;;;;;;;;;;;;;;16.25;50.29;95982.41;4996057;28;995;-59
2022/11/02 07:06:31;;;;;;;;;;;;;;;17.43;47.29;95992.06;4995707;28;971;-60
2022/11/02 07:08:57;;;;;;;;;;;;;;;17.92;45.64;95988.91;4995662;28;1062;-60
2022/11/02 07:11:23;;;;;;;;;;;;;;;20.75;40.07;96003.75;4995433;28;1054;-60
2022/11/02 07:13:49;;;;;;;;;;;;;;;21.72;37.85;96009.78;4995526;28;974;-60
2022/11/02 07:16:16;;;;;;;;;;;;;;;22.47;37.08;96006.75;4978307;28;1636;-60
2022/11/02 07:18:42;;;;;;;;;;;;;;;24.80;33.41;96028.75;4994374;28;1997;-60
2022/11/02 07:21:10;;;;;;;;;;;;;;;28.48;28.74;96037.91;4995549;28;962;-60
2022/11/02 07:23:36;;;;;;;;;;;;;;;26.50;30.58;96026.53;5011403;28;1216;-61
2022/11/02 07:26:03;;;;;;;;;;;;;;;24.60;34.02;96015.31;5034605;28;1078;-60
2022/11/02 07:28:30;;;;;;;;;;;;;;;26.75;30.95;96019.94;5034445;28;1113;-60
2022/11/02 07:30:56;;;;;;;;;;;;;;;29.48;27.41;96039.75;5045720;28;1049;-60
2022/11/02 07:33:22;;;;;;;;;;;;;;;29.69;26.72;96044.38;5054495;28;957;-61
2022/11/02 07:35:49;;;;;;;;;;;;;;;30.86;25.58;96040.03;5054530;28;1013;-61
2022/11/02 07:38:15;;;;;;;;;;;;;;;30.75;25.39;96034.47;5054285;28;1914;-61
2022/11/02 07:40:41;;;;;;;;;;;;;;;31.79;24.04;96043.97;5054268;28;1431;-61
2022/11/02 07:43:07;;;;;;;;;;;;;;;33.19;22.68;96049.94;5054267;28;994;-61
2022/11/02 07:45:33;;;;;;;;;;;;;;;31.97;23.80;96043.47;5054036;28;993;-61
2022/11/02 07:47:59;;;;;;;;;;;;;;;32.36;23.58;96039.31;5054139;28;1050;-61
2022/11/02 07:50:28;;;;;;;;;;;;;;;33.19;22.79;96036.09;5054150;28;962;-61
2022/11/02 07:52:55;;;;;;;;;;;;;;;32.10;23.70;96028.28;5043777;28;1049;-61
2022/11/02 07:55:22;;;;;;;;;;;;;;;33.26;22.48;96033.84;5034061;28;1065;-61
2022/11/02 07:57:56;;;;;;;;;;;;;;;34.59;20.96;96045.16;5033920;28;1989;-61
2022/11/02 08:00:23;;;;;;;;;;;;;;;32.06;23.02;96025.25;5033909;28;1026;-61
2022/11/02 08:02:53;;;;;;;;;;;;;;;29.93;25.53;96009.06;5033168;28;954;-61
2022/11/02 08:05:19;;;;;;;;;;;;;;;27.63;27.57;95993.13;5033953;28;962;-61
2022/11/02 08:07:45;;;;;;;;;;;;;;;28.98;26.70;96003.09;5016468;28;959;-61
2022/11/02 08:10:11;;;;;;;;;;;;;;;32.39;22.65;96009.16;5033830;28;1023;-61
2022/11/02 08:12:37;;;;;;;;;;;;;;;30.77;24.59;95997.47;5033735;28;1090;-61
2022/11/02 08:15:03;;;;;;;;;;;;;;;28.50;26.75;95988.97;5033669;28;1034;-59
2022/11/02 08:17:29;;;;;;;;;;;;;;;28.26;27.29;95988.38;5033649;28;1065;-60
2022/11/02 08:19:55;;;;;;;;;;;;;;;25.96;30.32;95971.88;5033716;28;1969;-59
2022/11/02 08:22:22;;;;;;;;;;;;;;;24.08;32.96;95950.06;5033664;28;1029;-60
2022/11/02 08:24:48;;;;;;;;;;;;;;;23.11;34.82;95937.66;5033436;28;1078;-59
2022/11/02 08:27:14;;;;;;;;;;;;;;;26.14;30.17;95956.38;5033388;28;1141;-60
2022/11/02 08:29:40;;;;;;;;;;;;;;;27.46;28.98;95950.00;5034526;28;1049;-60
2022/11/02 08:32:06;;;;;;;;;;;;;;;26.60;30.02;95950.00;5035741;28;1109;-59
2022/11/02 08:34:32;;;;;;;;;;;;;;;27.82;28.66;95953.31;5053405;28;1239;-59
2022/11/02 08:36:58;;;;;;;;;;;;;;;29.81;26.09;95957.97;5053473;28;981;-60
2022/11/02 08:39:24;;;;;;;;;;;;;;;31.17;24.63;95962.88;5053142;28;1902;-60
2022/11/02 08:41:50;;;;;;;;;;;;;;;31.23;24.26;95964.56;5035607;28;977;-60
2022/11/02 08:44:16;;;;;;;;;;;;;;;29.97;26.13;95957.84;5053406;28;938;-60
2022/11/02 08:46:43;;;;;;;;;;;;;;;29.28;27.01;95947.56;5035651;28;1481;-60
2022/11/02 08:49:09;;;;;;;;;;;;;;;28.34;28.14;95938.47;5053293;28;966;-60
2022/11/02 08:51:35;;;;;;;;;;;;;;;26.52;30.71;95922.91;5053020;28;1113;-60
2022/11/02 08:54:01;;;;;;;;;;;;;;;25.92;31.62;95910.41;5033650;28;1100;-60
2022/11/02 08:56:27;;;;;;;;;;;;;;;26.31;31.22;95913.44;5033086;28;1066;-60
2022/11/02 08:58:53;;;;;;;;;;;;;;;27.04;30.55;95917.38;5033367;28;1906;-60
2022/11/02 09:01:19;;;;;;;;;;;;;;;27.20;30.25;95923.13;5033273;28;1047;-60
2022/11/02 09:03:45;;;;;;;;;;;;;;;25.77;32.48;95905.38;5033206;28;1070;-59
2022/11/02 09:06:11;;;;;;;;;;;;;;;24.27;34.60;95897.09;5033056;28;1152;-60
2022/11/02 09:08:37;;;;;;;;;;;;;;;23.16;36.21;95888.75;5033188;28;981;-59
2022/11/02 09:11:03;;;;;;;;;;;;;;;22.64;38.16;95879.84;5033012;28;1049;-59
2022/11/02 09:13:30;;;;;;;;;;;;;;;22.35;38.35;95873.94;5035186;28;971;-60
2022/11/02 09:15:57;;;;;;;;;;;;;;;22.37;38.31;95874.53;5037274;28;1013;-59
2022/11/02 09:18:23;;;;;;;;;;;;;;;22.55;38.19;95870.25;5037028;28;1987;-58
2022/11/02 09:20:50;;;;;;;;;;;;;;;22.67;38.08;95865.78;5037364;28;1369;-57
2022/11/02 09:23:16;;;;;;;;;;;;;;;22.62;37.86;95851.97;5036755;28;1173;-58
2022/11/02 09:25:43;;;;;;;;;;;;;;;22.57;38.36;95854.50;5036802;28;997;-58
2022/11/02 09:28:09;;;;;;;;;;;;;;;22.64;38.16;95852.59;5036867;28;1113;-59
2022/11/02 09:30:35;;;;;;;;;;;;;;;22.93;37.90;95848.38;5045247;28;1061;-59
2022/11/02 09:33:03;;;;;;;;;;;;;;;23.93;36.47;95852.94;5056740;28;1590;-59
2022/11/02 09:35:36;;;;;;;;;;;;;;;24.50;41.19;95847.16;5056551;28;1963;-58
2022/11/02 09:38:02;;;;;;;;;;;;;;;24.80;41.74;95835.41;5056488;28;1911;-60
2022/11/02 09:40:40;;;;;;;;;;;;;;;25.06;35.98;95849.72;5038610;28;1292;-60
2022/11/02 09:43:22;;;;;;;;;;;;;;;25.43;34.66;95847.66;5056500;28;1039;-60
2022/11/02 09:45:51;;;;;;;;;;;;;;;26.52;32.81;95848.06;5056738;28;1044;-59
2022/11/02 09:48:39;;;;;;;;;;;;;;;28.39;30.26;95853.25;5056444;28;954;-60
2022/11/02 09:51:10;;;;;;;;;;;;;;;30.28;28.06;95861.50;5056351;28;986;-60
2022/11/02 09:53:43;;;;;;;;;;;;;;;31.20;26.65;95866.47;5040297;28;1107;-61
2022/11/02 09:56:10;;;;;;;;;;;;;;;31.61;27.02;95872.06;5036341;28;1042;-61
2022/11/02 09:58:38;;;;;;;;;;;;;;;31.77;26.68;95861.78;5036243;28;1977;-60
2022/11/02 10:01:24;;;;;;;;;;;;;;;31.77;25.84;95863.75;5036278;28;1020;-61
2022/11/02 10:04:09;;;;;;;;;;;;;;;31.36;26.74;95856.28;5036064;28;1088;-61
2022/11/02 10:06:38;;;;;;;;;;;;;;;30.97;26.40;95851.28;5036192;28;1042;-61
2022/11/02 10:09:12;;;;;;;;;;;;;;;30.42;27.39;95837.03;5036176;28;950;-60
2022/11/02 10:11:38;;;;;;;;;;;;;;;29.96;27.51;95834.03;5035992;28;1077;-60
2022/11/02 10:14:09;;;;;;;;;;;;;;;29.37;28.73;95829.50;5035945;28;1062;-60
2022/11/02 10:16:38;;;;;;;;;;;;;;;28.98;28.87;95822.25;5035947;28;1051;-60
2022/11/02 10:19:11;;;;;;;;;;;;;;;28.51;30.07;95808.28;5035932;28;1902;-60
2022/11/02 10:21:38;;;;;;;;;;;;;;;27.89;30.14;95804.81;5018351;28;1109;-61
2022/11/02 10:24:16;;;;;;;;;;;;;;;26.85;32.09;95800.72;5034964;28;1104;-60
2022/11/02 10:26:43;;;;;;;;;;;;;;;25.65;32.84;95784.06;5035743;28;1237;-59
2022/11/02 10:29:24;;;;;;;;;;;;;;;24.80;33.85;95772.50;5035706;28;1034;-60
2022/11/02 10:31:50;;;;;;;;;;;;;;;24.11;35.05;95769.28;5054351;28;1054;-60
2022/11/02 10:34:23;;;;;;;;;;;;;;;23.73;36.11;95754.88;5055474;28;1073;-60
2022/11/02 10:37:08;;;;;;;;;;;;;;;23.46;36.82;95748.03;5055423;28;1140;-60
2022/11/02 10:39:34;;;;;;;;;;;;;;;23.19;37.47;95740.97;5055390;28;1906;-59
2022/11/02 10:42:00;;;;;;;;;;;;;;;23.13;37.40;95732.88;5055421;28;1089;-59
2022/11/02 10:44:55;;;;;;;;;;;;;;;23.07;37.19;95725.56;5055393;28;954;-59
2022/11/02 10:47:24;;;;;;;;;;;;;;;22.95;37.65;95722.72;4968071;28;1094;-60
2022/11/02 10:50:09;;;;;;;;;;;;;;;22.90;37.50;95723.41;5055549;28;1042;-60
2022/11/02 10:52:37;;;;;;;;;;;;;;;22.84;37.88;95713.41;5047614;28;1061;-60
2022/11/02 10:55:03;;;;;;;;;;;;;;;22.80;37.48;95713.03;5035389;28;1108;-59
2022/11/02 10:57:31;;;;;;;;;;;;;;;22.76;38.33;95702.78;5035151;28;1152;-59
2022/11/02 11:00:21;;;;;;;;;;;;;;;22.78;38.00;95701.53;5017570;28;1983;-60
2022/11/02 11:03:13;;;;;;;;;;;;;;;22.78;38.32;95697.94;5035081;28;1050;-60
2022/11/02 11:05:55;;;;;;;;;;;;;;;22.75;38.27;95688.34;5032456;28;2107;-59
2022/11/02 11:08:40;;;;;;;;;;;;;;;22.73;37.96;95695.06;5035235;28;979;-60
2022/11/02 11:11:09;;;;;;;;;;;;;;;22.74;38.70;95681.19;5035143;28;1057;-60
2022/11/02 11:13:35;;;;;;;;;;;;;;;22.74;38.62;95681.19;5034788;28;1084;-60
2022/11/02 11:16:02;;;;;;;;;;;;;;;22.77;38.54;95669.84;5034921;28;1010;-60
2022/11/02 11:18:28;;;;;;;;;;;;;;;22.76;38.64;95667.34;5017121;28;1914;-60
2022/11/02 11:20:54;;;;;;;;;;;;;;;22.72;37.93;95664.22;5034817;28;1046;-59
2022/11/02 11:23:24;;;;;;;;;;;;;;;22.73;38.16;95663.19;5017117;28;1248;-59
2022/11/02 11:25:52;;;;;;;;;;;;;;;22.75;38.92;95655.63;5034674;28;1050;-59
2022/11/02 11:28:21;;;;;;;;;;;;;;;22.75;38.55;95657.53;5034618;28;1026;-59
2022/11/02 11:30:59;;;;;;;;;;;;;;;22.75;38.38;95655.63;5044707;28;1052;-59
2022/11/02 11:33:25;;;;;;;;;;;;;;;22.69;38.67;95648.34;5054385;28;1049;-59
2022/11/02 11:35:51;;;;;;;;;;;;;;;22.67;38.61;95645.03;5054432;28;1053;-59
2022/11/02 11:38:22;;;;;;;;;;;;;;;22.63;38.40;95646.50;5054390;28;1992;-59
2022/11/02 11:40:53;;;;;;;;;;;;;;;22.70;37.99;95643.72;5054361;28;1256;-59
2022/11/02 11:43:22;;;;;;;;;;;;;;;22.72;38.09;95645.16;5054208;28;1092;-59
2022/11/02 11:45:59;;;;;;;;;;;;;;;22.79;37.78;95640.47;5054127;28;978;-61
2022/11/02 11:48:43;;;;;;;;;;;;;;;22.79;38.28;95631.47;5054051;28;1054;-59
2022/11/02 11:51:28;;;;;;;;;;;;;;;22.81;37.45;95627.44;5054213;28;950;-59
2022/11/02 11:54:13;;;;;;;;;;;;;;;22.78;36.99;95621.63;5035451;28;1058;-59
2022/11/02 11:56:41;;;;;;;;;;;;;;;22.76;37.92;95613.66;5034310;28;1101;-59
2022/11/02 11:59:18;;;;;;;;;;;;;;;22.75;36.83;95614.72;5033935;28;1902;-59
2022/11/02 12:01:44;;;;;;;;;;;;;;;22.82;37.15;95609.19;5034017;28;1043;-59
2022/11/02 12:04:10;;;;;;;;;;;;;;;22.88;37.39;95605.59;5033930;28;1066;-60
2022/11/02 12:06:39;;;;;;;;;;;;;;;22.92;37.22;95605.97;5033889;28;1010;-60
2022/11/02 12:09:27;;;;;;;;;;;;;;;22.90;37.43;95600.72;5033815;28;1134;-60
2022/11/02 12:12:12;;;;;;;;;;;;;;;22.84;37.73;95590.75;5033796;28;1094;-59
2022/11/02 12:14:50;;;;;;;;;;;;;;;22.78;37.59;95591.63;5033812;28;978;-59
2022/11/02 12:17:25;;;;;;;;;;;;;;;22.79;36.85;95583.22;5033589;28;1038;-59
2022/11/02 12:19:55;;;;;;;;;;;;;;;22.83;37.45;95583.63;5033759;28;1903;-59
2022/11/02 12:22:29;;;;;;;;;;;;;;;22.80;36.85;95584.91;5033581;28;1113;-60
2022/11/02 12:25:01;;;;;;;;;;;;;;;22.73;36.81;95586.88;5033476;28;1166;-60
2022/11/02 12:27:47;;;;;;;;;;;;;;;22.59;36.78;95583.47;5033503;28;1049;-60
2022/11/02 12:30:13;;;;;;;;;;;;;;;22.48;37.11;95584.22;5038864;28;1113;-59
2022/11/02 12:32:48;;;;;;;;;;;;;;;22.51;36.88;95581.00;5053599;28;1028;-59
2022/11/02 12:35:33;;;;;;;;;;;;;;;22.63;36.66;95577.53;5035609;28;1105;-59
2022/11/02 12:38:08;;;;;;;;;;;;;;;22.73;36.57;95580.59;5053250;28;1988;-59
2022/11/02 12:40:34;;;;;;;;;;;;;;;22.76;36.66;95580.94;5053360;28;1312;-59
2022/11/02 12:43:00;;;;;;;;;;;;;;;22.79;36.46;95571.50;5035911;28;947;-59
2022/11/02 12:45:36;;;;;;;;;;;;;;;22.74;36.28;95569.44;5053166;28;1105;-59
2022/11/02 12:48:05;;;;;;;;;;;;;;;22.73;36.65;95566.97;5052733;28;1013;-59
2022/11/02 12:50:31;;;;;;;;;;;;;;;22.70;37.46;95561.97;5053020;28;1049;-59
2022/11/02 12:53:06;;;;;;;;;;;;;;;22.65;37.48;95568.09;5042685;28;1068;-59
2022/11/02 12:55:35;;;;;;;;;;;;;;;22.59;37.65;95567.13;5033375;28;947;-59
2022/11/02 12:58:04;;;;;;;;;;;;;;;22.59;37.28;95564.41;5033318;28;1910;-59
2022/11/02 13:00:34;;;;;;;;;;;;;;;22.62;37.03;95557.66;5033056;28;1098;-59
2022/11/02 13:03:04;;;;;;;;;;;;;;;22.61;37.03;95556.81;5033188;28;1013;-59
2022/11/02 13:05:47;;;;;;;;;;;;;;;22.60;37.28;95555.13;5033311;28;974;-59
2022/11/02 13:08:15;;;;;;;;;;;;;;;22.55;37.47;95552.25;5033228;28;966;-59
2022/11/02 13:10:52;;;;;;;;;;;;;;;22.50;37.46;95546.66;5033556;28;970;-59
2022/11/02 13:13:42;;;;;;;;;;;;;;;22.49;37.75;95545.00;5033103;28;947;-59
2022/11/02 13:16:09;;;;;;;;;;;;;;;22.48;37.71;95545.22;5025188;28;1184;-59
2022/11/02 13:18:38;;;;;;;;;;;;;;;22.42;37.73;95544.22;5033190;28;1983;-61
2022/11/02 13:21:05;;;;;;;;;;;;;;;22.36;37.67;95540.50;5032973;28;1178;-61
2022/11/02 13:23:46;;;;;;;;;;;;;;;22.39;37.35;95541.97;5032704;28;1250;-59
2022/11/02 13:26:24;;;;;;;;;;;;;;;22.42;37.38;95541.50;5032912;28;1013;-59
2022/11/02 13:28:55;;;;;;;;;;;;;;;22.43;37.57;95543.19;5033105;28;1030;-59
2022/11/02 13:31:24;;;;;;;;;;;;;;;22.44;37.75;95544.81;5047918;28;1104;-59